Time;durP1;ratioP1;P1;durP2;ratioP2;P2;SDS_P1;SDS_P2;PMS_P1;PMS_P2;Temp;Humidity;BMP_temperature;BMP_pressure;BME280_temperature;BME280_humidity;BME280_pressure;Samples;Min_cycle;Max_cycle;Signal;HPM_P1;HPM_P2
2023/03/23 00:01:10;;;;;;;12.10;9.80;;;;;;;14.49;51.97;99585.82;105112;1266;70762;-63
2023/03/23 00:03:38;;;;;;;11.70;10.40;;;;;;;14.46;52.61;99584.61;105056;1260;61772;-63
2023/03/23 00:06:05;;;;;;;;;;;;;;;14.41;52.52;99584.89;105183;1248;61650;-62
2023/03/23 00:08:37;;;;;;;11.00;9.00;;;;;;;14.39;53.48;99583.59;105002;1250;73319;-63
2023/03/23 00:11:05;;;;;;;9.60;8.70;;;;;;;14.34;53.20;99583.76;105175;1266;68723;-62
2023/03/23 00:13:33;;;;;;;13.90;9.70;;;;;;;14.33;53.14;99584.13;105157;1252;71480;-61
2023/03/23 00:16:01;;;;;;;13.60;10.30;;;;;;;14.34;53.00;99577.05;105083;1252;61584;-61
2023/03/23 00:18:29;;;;;;;10.70;9.60;;;;;;;14.33;53.41;99576.91;105150;1251;61708;-62
2023/03/23 00:20:59;;;;;;;11.60;9.60;;;;;;;14.31;53.43;99576.48;105191;1264;73500;-61
2023/03/23 00:23:28;;;;;;;;;;;;;;;14.33;54.03;99570.23;105112;1249;69177;-62
2023/03/23 00:25:58;;;;;;;12.10;9.90;;;;;;;14.37;54.02;99567.31;105127;1253;72075;-64
2023/03/23 00:28:27;;;;;;;14.70;10.70;;;;;;;14.37;53.49;99566.44;105187;1254;61693;-63
2023/03/23 00:31:03;;;;;;;12.10;9.80;;;;;;;14.39;53.45;99564.04;105260;1248;61701;-63
2023/03/23 00:33:33;;;;;;;13.90;10.20;;;;;;;14.41;53.43;99564.09;105119;1254;74157;-62
2023/03/23 00:36:01;;;;;;;13.00;10.10;;;;;;;14.38;53.79;99563.37;105163;1250;70233;-62
2023/03/23 00:38:28;;;;;;;13.10;11.10;;;;;;;14.40;53.44;99555.18;105138;1251;71583;-61
2023/03/23 00:41:03;;;;;;;11.20;10.10;;;;;;;14.43;54.41;99550.77;104781;1269;61704;-62
2023/03/23 00:43:31;;;;;;;13.50;11.10;;;;;;;14.41;54.05;99549.25;105148;1248;61656;-62
2023/03/23 00:46:08;;;;;;;13.20;11.20;;;;;;;14.43;54.42;99545.44;105216;1253;73411;-62
2023/03/23 00:48:36;;;;;;;13.10;11.40;;;;;;;14.41;55.12;99543.66;105063;1250;67742;-62
2023/03/23 00:51:05;;;;;;;;;;;;;;;14.36;54.79;99538.79;105041;1250;71312;-62
2023/03/23 00:53:35;;;;;;;13.70;10.20;;;;;;;14.36;55.87;99533.35;105200;1255;61814;-62
2023/03/23 00:56:02;;;;;;;12.50;10.10;;;;;;;14.32;55.43;99536.21;105239;1250;61683;-62
2023/03/23 00:58:34;;;;;;;13.30;10.70;;;;;;;14.32;55.41;99533.21;105233;1261;73975;-62
2023/03/23 01:01:02;;;;;;;;;;;;;;;14.33;55.99;99533.37;105164;1253;69118;-62
2023/03/23 01:03:29;;;;;;;13.70;10.80;;;;;;;14.38;56.78;99537.30;105121;1256;72315;-62
2023/03/23 01:06:08;;;;;;;12.60;11.30;;;;;;;14.38;56.36;99537.63;105041;1252;61555;-61
2023/03/23 01:08:39;;;;;;;14.50;11.80;;;;;;;14.41;56.19;99537.67;104882;1252;61666;-62
2023/03/23 01:11:06;;;;;;;13.00;11.70;;;;;;;14.39;55.37;99533.02;105115;1252;72254;-62
2023/03/23 01:13:33;;;;;;;15.00;12.20;;;;;;;14.36;55.41;99537.22;104722;1251;68395;-63
2023/03/23 01:16:01;;;;;;;14.10;12.60;;;;;;;14.39;56.23;99536.69;105208;1248;72240;-62
2023/03/23 01:18:28;;;;;;;13.30;11.90;;;;;;;14.44;56.63;99538.01;104731;1248;61746;-63
2023/03/23 01:20:55;;;;;;;16.30;12.90;;;;;;;14.48;56.75;99536.33;105340;1253;61726;-62
2023/03/23 01:23:23;;;;;;;15.70;13.40;;;;;;;14.53;56.75;99535.72;105102;1252;72677;-63
2023/03/23 01:25:50;;;;;;;16.60;13.60;;;;;;;14.59;56.91;99536.58;105208;1248;68276;-61
2023/03/23 01:28:17;;;;;;;16.00;13.40;;;;;;;14.62;56.71;99534.66;104995;1259;73249;-63
2023/03/23 01:30:44;;;;;;;17.50;14.70;;;;;;;14.65;57.05;99531.81;104810;1254;61595;-63
2023/03/23 01:33:14;;;;;;;19.30;14.30;;;;;;;14.68;56.74;99534.46;104978;1250;61644;-64
2023/03/23 01:35:42;;;;;;;17.20;14.40;;;;;;;14.70;57.50;99533.46;104967;1253;72051;-63
2023/03/23 01:38:12;;;;;;;18.80;15.80;;;;;;;14.69;57.84;99528.93;105237;1263;68063;-63
2023/03/23 01:40:39;;;;;;;23.50;15.70;;;;;;;14.68;58.15;99526.13;105067;1251;70641;-64
2023/03/23 01:43:13;;;;;;;20.00;15.20;;;;;;;14.68;58.23;99523.48;104842;1253;61659;-63
2023/03/23 01:45:41;;;;;;;18.10;15.30;;;;;;;14.71;58.12;99524.94;104902;1251;61544;-63
2023/03/23 01:48:13;;;;;;;17.00;14.60;;;;;;;14.70;57.88;99522.83;105218;1253;71604;-63
2023/03/23 01:50:52;;;;;;;18.40;14.90;;;;;;;14.71;57.94;99522.98;105145;1248;69062;-63
2023/03/23 01:53:20;;;;;;;19.10;15.30;;;;;;;14.73;58.09;99521.45;105147;1249;73572;-62
2023/03/23 01:55:50;;;;;;;19.10;16.00;;;;;;;14.77;57.59;99520.70;104995;1265;61688;-62
2023/03/23 01:58:20;;;;;;;17.20;15.00;;;;;;;14.76;57.77;99521.45;106543;1254;61666;-62
2023/03/23 02:00:48;;;;;;;18.20;15.30;;;;;;;14.69;57.78;99522.19;105355;1254;72760;-63
2023/03/23 02:03:17;;;;;;;20.70;15.80;;;;;;;14.73;57.12;99522.33;104858;1254;68300;-63
2023/03/23 02:05:45;;;;;;;19.70;15.30;;;;;;;14.77;57.18;99517.98;104791;1250;71949;-63
2023/03/23 02:08:22;;;;;;;19.60;16.00;;;;;;;14.78;57.26;99523.42;105050;1265;61689;-63
2023/03/23 02:10:50;;;;;;;19.60;15.40;;;;;;;14.71;57.96;99524.59;106353;1250;61562;-63
2023/03/23 02:13:22;;;;;;;19.30;15.60;;;;;;;14.73;57.06;99521.96;108813;1248;74765;-63
2023/03/23 02:16:07;;;;;;;19.90;14.60;;;;;;;14.75;57.71;99524.85;108605;1249;70771;-67
2023/03/23 02:18:34;;;;;;;21.50;16.10;;;;;;;14.77;58.15;99524.57;104769;1253;73039;-64
2023/03/23 02:21:27;;;;;;;20.90;16.30;;;;;;;14.75;57.67;99517.77;105113;1262;61584;-62
2023/03/23 02:24:32;;;;;;;22.40;16.50;;;;;;;14.80;58.00;99516.39;105058;1248;61663;-63
2023/03/23 02:27:08;;;;;;;18.10;15.20;;;;;;;14.81;58.32;99513.86;105109;1256;73622;-63
2023/03/23 02:29:39;;;;;;;21.10;16.70;;;;;;;14.80;57.72;99512.20;104695;1253;68704;-63
2023/03/23 02:32:32;;;;;;;21.20;15.80;;;;;;;14.82;57.88;99510.14;104713;1251;73694;-64
2023/03/23 02:35:02;;;;;;;21.50;17.20;;;;;;;14.85;58.53;99514.18;105084;1262;61797;-65
2023/03/23 02:37:46;;;;;;;22.40;16.40;;;;;;;14.85;58.81;99515.61;105019;1266;61771;-63
2023/03/23 02:40:19;;;;;;;22.60;16.90;;;;;;;14.87;58.55;99513.53;104940;1252;73336;-64
2023/03/23 02:42:49;;;;;;;21.40;16.30;;;;;;;14.88;58.63;99515.73;104851;1250;68851;-63
2023/03/23 02:45:16;;;;;;;20.70;17.00;;;;;;;14.91;58.70;99509.19;105032;1253;71883;-63
2023/03/23 02:47:45;;;;;;;25.40;17.20;;;;;;;14.94;58.87;99506.89;104919;1251;61811;-63
2023/03/23 02:50:14;;;;;;;20.20;17.10;;;;;;;14.98;58.50;99509.66;104674;1250;61782;-64
2023/03/23 02:52:44;;;;;;;22.80;17.30;;;;;;;15.03;58.57;99507.02;104656;1257;73764;-63
2023/03/23 02:55:11;;;;;;;22.20;17.80;;;;;;;15.11;58.49;99505.67;104834;1262;68204;-63
2023/03/23 02:57:39;;;;;;;25.70;18.10;;;;;;;15.15;59.18;99502.05;105103;1253;71856;-63
2023/03/23 03:00:10;;;;;;;21.80;17.30;;;;;;;15.20;58.49;99503.33;104994;1250;61765;-62
2023/03/23 03:02:53;;;;;;;24.00;18.60;;;;;;;15.24;57.86;99504.83;105148;1253;61577;-62
2023/03/23 03:05:30;;;;;;;21.90;17.20;;;;;;;15.24;57.64;99502.35;105014;1254;73313;-63
2023/03/23 03:08:18;;;;;;;20.30;17.20;;;;;;;15.26;57.56;99506.98;105086;1250;68573;-63
2023/03/23 03:10:59;;;;;;;21.20;16.20;;;;;;;15.28;57.84;99508.83;105042;1250;72256;-63
2023/03/23 03:13:59;;;;;;;20.10;16.80;;;;;;;15.31;58.26;99511.45;105136;1250;61685;-63
2023/03/23 03:16:51;;;;;;;17.70;15.10;;;;;;;15.35;57.63;99515.77;105159;1253;61753;-63
2023/03/23 03:19:27;;;;;;;21.30;15.30;;;;;;;15.39;58.07;99514.10;104903;1255;72669;-62
2023/03/23 03:21:55;;;;;;;20.00;16.10;;;;;;;15.42;58.02;99516.91;104721;1250;67991;-63
2023/03/23 03:24:28;;;;;;;18.70;15.20;;;;;;;15.46;57.40;99514.56;104840;1253;71100;-64
2023/03/23 03:26:58;;;;;;;17.20;15.20;;;;;;;15.47;57.71;99513.41;105028;1263;61688;-63
2023/03/23 03:29:37;;;;;;;20.60;15.60;;;;;;;15.51;57.29;99514.35;105158;1266;61688;-64
2023/03/23 03:32:10;;;;;;;19.40;15.70;;;;;;;15.56;57.12;99515.12;104841;1256;73515;-63
2023/03/23 03:34:38;;;;;;;21.50;15.60;;;;;;;15.61;56.95;99516.56;104865;1253;69007;-64
2023/03/23 03:37:06;;;;;;;18.50;15.10;;;;;;;15.65;56.60;99517.03;105244;1247;71477;-64
2023/03/23 03:39:36;;;;;;;20.00;15.80;;;;;;;15.65;56.30;99513.46;104699;1256;61610;-65
2023/03/23 03:42:05;;;;;;;18.80;14.90;;;;;;;15.66;56.65;99512.04;104906;1266;61580;-65
2023/03/23 03:44:33;;;;;;;20.00;15.20;;;;;;;15.66;56.10;99509.84;105008;1250;73386;-64
2023/03/23 03:47:01;;;;;;;21.60;15.90;;;;;;;15.66;55.86;99504.42;105308;1267;68923;-64
2023/03/23 03:49:28;;;;;;;;;;;;;;;15.61;56.42;99500.70;105101;1252;72231;-64
2023/03/23 03:51:59;;;;;;;17.50;14.50;;;;;;;15.63;56.54;99499.64;104944;1269;61691;-64
2023/03/23 03:54:35;;;;;;;18.30;14.30;;;;;;;15.54;56.24;99497.94;104982;1266;61682;-64
2023/03/23 03:57:11;;;;;;;20.20;15.20;;;;;;;15.43;56.29;99493.00;104685;1251;72726;-64
2023/03/23 03:59:57;;;;;;;18.60;14.40;;;;;;;15.38;56.64;99496.49;104825;1254;68550;-64
2023/03/23 04:02:42;;;;;;;19.80;15.10;;;;;;;15.37;56.69;99493.40;104927;1254;72323;-64
2023/03/23 04:05:10;;;;;;;19.90;16.50;;;;;;;15.34;56.33;99499.74;104627;1253;61704;-64
2023/03/23 04:07:38;;;;;;;20.00;16.30;;;;;;;15.31;56.59;99502.64;105004;1252;61687;-67
2023/03/23 04:10:06;;;;;;;;;;;;;;;15.30;56.73;99503.05;108839;1250;73093;-67
2023/03/23 04:12:35;;;;;;;18.10;14.00;;;;;;;15.30;57.14;99506.02;107124;1250;68535;-67
2023/03/23 04:15:21;;;;;;;18.80;15.00;;;;;;;15.24;57.55;99513.11;104729;1255;72262;-66
2023/03/23 04:17:50;;;;;;;18.00;15.20;;;;;;;15.26;57.29;99516.20;105165;1250;61752;-65
2023/03/23 04:20:17;;;;;;;20.70;15.20;;;;;;;15.32;57.18;99513.70;105038;1253;61720;-65
2023/03/23 04:22:51;;;;;;;17.30;14.60;;;;;;;15.37;57.57;99515.84;104898;1251;74045;-65
2023/03/23 04:25:20;;;;;;;18.00;15.00;;;;;;;15.40;57.60;99513.14;104630;1252;70516;-64
2023/03/23 04:27:52;;;;;;;19.40;15.00;;;;;;;15.44;57.29;99513.59;104533;1253;72343;-65
2023/03/23 04:30:24;;;;;;;17.90;15.30;;;;;;;15.45;57.85;99510.68;104795;1250;61696;-64
2023/03/23 04:33:24;;;;;;;17.10;14.90;;;;;;;15.47;58.17;99509.52;104828;1262;61698;-65
2023/03/23 04:36:00;;;;;;;18.60;14.30;;;;;;;15.47;57.95;99505.48;104705;1250;73900;-65
2023/03/23 04:38:38;;;;;;;19.80;15.10;;;;;;;15.50;57.93;99505.96;104846;1256;70138;-65
2023/03/23 04:41:11;;;;;;;18.00;15.60;;;;;;;15.50;57.73;99499.09;104737;1254;72682;-64
2023/03/23 04:43:53;;;;;;;17.00;14.80;;;;;;;15.55;57.63;99501.21;104973;1250;61711;-64
2023/03/23 04:46:28;;;;;;;21.00;14.90;;;;;;;15.57;57.29;99503.05;104971;1254;61674;-67
2023/03/23 04:49:01;;;;;;;18.30;14.30;;;;;;;15.61;56.92;99505.79;104905;1261;72842;-65
2023/03/23 04:51:35;;;;;;;18.40;14.60;;;;;;;15.67;56.94;99506.45;104871;1255;69038;-65
2023/03/23 04:54:14;;;;;;;22.70;15.80;;;;;;;15.71;57.47;99508.52;105123;1251;73068;-65
2023/03/23 04:56:42;;;;;;;17.30;14.80;;;;;;;15.71;58.08;99514.63;104732;1262;61657;-62
2023/03/23 04:59:14;;;;;;;18.00;14.30;;;;;;;15.80;57.84;99515.31;107926;1252;61568;-65
2023/03/23 05:02:12;;;;;;;16.10;13.00;;;;;;;15.89;58.82;99513.14;104920;1250;72044;-64
2023/03/23 05:04:41;;;;;;;16.80;13.90;;;;;;;15.93;58.24;99514.45;105064;1250;67553;-68
2023/03/23 05:07:12;;;;;;;18.60;15.70;;;;;;;16.03;57.98;99512.55;105011;1267;72442;-64
2023/03/23 05:09:47;;;;;;;15.80;13.30;;;;;;;16.10;58.10;99514.36;104964;1253;61699;-63
2023/03/23 05:14:47;;;;;;;15.70;14.00;;;;;;;15.22;69.88;99518.81;101688;1292;600287;-64
2023/03/23 05:17:16;;;;;;;17.00;14.00;;;;;;;16.34;60.21;99513.98;104221;1270;60460;-66
2023/03/23 05:19:47;;;;;;;16.10;13.90;;;;;;;16.52;58.97;99513.67;103864;1269;60634;-64
2023/03/23 05:22:32;;;;;;;15.50;13.90;;;;;;;16.63;57.91;99517.98;104068;1268;71428;-65
2023/03/23 05:25:03;;;;;;;17.60;14.10;;;;;;;16.67;57.91;99518.77;103839;1269;70403;-63
2023/03/23 05:27:36;;;;;;;15.30;13.30;;;;;;;16.77;57.59;99517.21;103584;1271;296109;-66
2023/03/23 05:30:15;;;;;;;17.60;14.70;;;;;;;16.81;57.00;99516.63;104064;1269;60562;-64
2023/03/23 05:32:44;;;;;;;16.50;13.60;;;;;;;16.83;56.55;99515.72;104081;1266;60548;-64
2023/03/23 05:35:31;;;;;;;;;;;;;;;16.89;56.50;99515.33;104116;1266;71723;-64
2023/03/23 05:37:58;;;;;;;16.80;13.50;;;;;;;16.96;56.02;99513.59;104476;1256;69416;-64
2023/03/23 05:40:29;;;;;;;16.40;13.00;;;;;;;16.95;55.48;99515.25;104882;1254;71969;-64
2023/03/23 05:43:02;;;;;;;16.90;13.30;;;;;;;17.01;55.43;99516.81;104533;1269;60787;-64
2023/03/23 05:45:45;;;;;;;17.40;13.70;;;;;;;17.07;55.39;99517.55;104473;1256;60828;-64
2023/03/23 05:48:12;;;;;;;17.90;13.60;;;;;;;17.12;54.78;99524.17;104516;1255;71891;-64
2023/03/23 05:50:40;;;;;;;15.30;12.30;;;;;;;17.09;55.16;99528.63;104998;1255;69549;-63
2023/03/23 05:53:09;;;;;;;15.90;13.50;;;;;;;17.11;54.93;99528.61;104466;1256;72694;-64
2023/03/23 05:55:38;;;;;;;16.20;13.50;;;;;;;17.13;55.30;99527.59;104671;1256;60805;-66
2023/03/23 05:58:29;;;;;;;16.20;12.20;;;;;;;17.16;55.01;99529.86;104867;1254;61424;-66
2023/03/23 06:00:57;;;;;;;17.10;12.90;;;;;;;17.21;55.07;99532.17;105128;1254;73259;-67
2023/03/23 06:03:27;;;;;;;14.00;12.50;;;;;;;17.36;54.69;99534.84;104831;1256;69623;-66
2023/03/23 06:06:00;;;;;;;14.80;12.20;;;;;;;17.49;54.80;99537.08;104979;1254;72214;-66
2023/03/23 06:08:36;;;;;;;15.20;12.70;;;;;;;17.58;54.08;99536.08;104870;1256;62272;-67
2023/03/23 06:11:05;;;;;;;13.50;11.50;;;;;;;17.65;53.89;99534.79;104897;1256;60814;-67
2023/03/23 06:13:35;;;;;;;14.90;12.20;;;;;;;17.73;53.91;99534.91;104833;1257;72859;-67
2023/03/23 06:16:08;;;;;;;16.40;13.30;;;;;;;17.80;54.21;99535.33;104736;1256;70523;-66
2023/03/23 06:19:03;;;;;;;45.70;24.00;;;;;;;17.88;53.95;99529.41;104972;1256;71642;-67
2023/03/23 06:21:35;;;;;;;42.50;25.60;;;;;;;17.93;53.64;99528.39;105049;1267;60847;-67
2023/03/23 06:24:23;;;;;;;34.70;21.80;;;;;;;17.99;53.35;99528.45;104910;1255;60826;-67
2023/03/23 06:26:51;;;;;;;26.00;18.50;;;;;;;18.01;53.20;99529.69;104626;1258;72989;-67
2023/03/23 06:29:22;;;;;;;18.00;14.80;;;;;;;18.04;52.95;99534.27;104844;1259;69838;-68
2023/03/23 06:31:59;;;;;;;15.70;13.30;;;;;;;18.04;52.98;99531.61;104932;1256;72131;-66
2023/03/23 06:34:28;;;;;;;16.90;13.50;;;;;;;18.03;52.64;99531.34;104900;1264;60879;-68
2023/03/23 06:36:56;;;;;;;;;;;;;;;18.03;52.71;99530.77;104762;1264;61246;-69
2023/03/23 06:39:48;;;;;;;14.00;11.90;;;;;;;18.11;52.40;99532.66;104765;1259;74355;-68
2023/03/23 06:42:24;;;;;;;12.90;11.40;;;;;;;18.13;52.57;99532.00;104767;1259;70159;-67
2023/03/23 06:45:04;;;;;;;12.20;10.80;;;;;;;18.20;52.16;99530.21;104773;1259;72222;-68
2023/03/23 06:47:32;;;;;;;15.60;11.80;;;;;;;18.26;52.13;99534.52;104631;1256;60764;-67
2023/03/23 06:49:59;;;;;;;13.30;11.90;;;;;;;18.34;52.05;99538.90;104615;1256;60767;-67
2023/03/23 06:52:28;;;;;;;13.90;12.10;;;;;;;18.42;51.68;99537.77;105143;1254;73514;-66
2023/03/23 06:54:55;;;;;;;13.00;11.60;;;;;;;18.44;51.54;99539.19;104941;1259;68684;-66
2023/03/23 06:57:23;;;;;;;13.80;10.80;;;;;;;18.46;51.01;99535.00;107069;1255;72953;-68
2023/03/23 06:59:51;;;;;;;12.60;11.20;;;;;;;18.54;51.24;99537.52;108333;1256;58902;-66
2023/03/23 07:02:18;;;;;;;12.50;11.30;;;;;;;18.59;51.19;99539.28;105255;1256;60806;-65
2023/03/23 07:04:48;;;;;;;13.80;11.50;;;;;;;18.67;51.36;99540.10;104873;1256;71600;-65
2023/03/23 07:07:19;;;;;;;12.80;10.70;;;;;;;18.76;51.15;99541.88;104811;1269;68668;-65
2023/03/23 07:09:54;;;;;;;13.60;11.60;;;;;;;18.87;50.73;99540.17;105273;1260;72787;-66
2023/03/23 07:12:24;;;;;;;14.50;11.80;;;;;;;18.99;51.24;99542.05;104929;1256;61243;-69
2023/03/23 07:14:52;;;;;;;13.00;11.60;;;;;;;19.09;50.64;99537.87;104684;1272;60963;-67
2023/03/23 07:17:19;;;;;;;13.60;10.80;;;;;;;19.23;50.38;99539.98;105024;1255;72990;-66
2023/03/23 07:20:02;;;;;;;13.40;11.50;;;;;;;19.33;50.05;99538.31;104692;1267;68837;-66
2023/03/23 07:22:31;;;;;;;12.90;11.00;;;;;;;19.41;50.25;99537.95;104688;1266;73307;-67
2023/03/23 07:25:05;;;;;;;12.50;11.20;;;;;;;19.46;49.70;99536.68;104692;1256;60857;-66
2023/03/23 07:27:45;;;;;;;14.50;11.80;;;;;;;19.53;49.53;99538.10;104993;1256;60870;-66
2023/03/23 07:30:14;;;;;;;14.50;11.70;;;;;;;19.59;49.68;99540.95;104576;1266;72266;-67
2023/03/23 07:32:41;;;;;;;14.00;11.80;;;;;;;19.71;49.29;99536.21;104851;1266;68890;-67
2023/03/23 07:35:09;;;;;;;13.10;11.30;;;;;;;19.84;49.37;99536.65;104567;1257;72633;-66
2023/03/23 07:37:55;;;;;;;13.20;11.80;;;;;;;20.00;48.60;99536.71;105805;1257;60665;-68
2023/03/23 07:40:23;;;;;;;11.80;10.60;;;;;;;20.04;47.82;99536.54;108627;1257;60771;-65
2023/03/23 07:42:55;;;;;;;15.60;11.10;;;;;;;20.12;48.01;99537.27;108835;1253;73709;-63
2023/03/23 07:45:42;;;;;;;11.40;10.20;;;;;;;20.23;47.75;99530.50;108324;1254;68638;-65
2023/03/23 07:48:11;;;;;;;12.20;10.10;;;;;;;20.30;47.40;99529.94;108521;1256;73918;-65
2023/03/23 07:50:38;;;;;;;13.10;10.90;;;;;;;20.36;47.76;99527.92;108614;1254;58902;-65
2023/03/23 07:53:10;;;;;;;13.40;10.50;;;;;;;20.31;47.52;99527.84;106484;1256;61216;-67
2023/03/23 07:55:38;;;;;;;13.10;11.70;;;;;;;20.35;48.16;99526.43;105333;1257;72729;-64
2023/03/23 07:58:11;;;;;;;12.80;11.40;;;;;;;20.50;47.68;99524.08;104952;1257;70213;-66
2023/03/23 08:00:40;;;;;;;14.20;12.20;;;;;;;20.60;46.90;99522.23;104982;1254;71719;-66
2023/03/23 08:03:08;;;;;;;13.50;11.60;;;;;;;20.74;46.45;99520.64;105005;1256;60866;-63
2023/03/23 08:05:50;;;;;;;13.80;11.10;;;;;;;20.89;46.05;99517.80;104899;1256;61500;-66
2023/03/23 08:08:56;;;;;;;13.90;11.00;;;;;;;21.00;45.81;99514.82;104601;1259;71483;-66
2023/03/23 08:11:56;;;;;;;13.10;10.80;;;;;;;21.19;46.16;99511.04;104323;1269;69488;-68
2023/03/23 08:14:53;;;;;;;11.70;10.30;;;;;;;21.32;45.31;99514.81;104612;1267;72726;-71
2023/03/23 08:17:36;;;;;;;12.20;10.90;;;;;;;21.42;44.86;99510.52;106557;1255;61115;-69
2023/03/23 08:20:25;;;;;;;15.60;11.40;;;;;;;21.58;45.43;99506.80;105023;1258;60789;-68
2023/03/23 08:23:02;;;;;;;12.30;11.00;;;;;;;21.69;44.78;99504.52;105198;1257;74102;-71
2023/03/23 08:25:48;;;;;;;12.10;10.70;;;;;;;21.73;43.08;99505.78;104978;1256;69632;-66
2023/03/23 08:28:15;;;;;;;11.80;10.60;;;;;;;21.76;43.51;99505.15;105185;1256;72737;-70
2023/03/23 08:31:10;;;;;;;11.30;10.10;;;;;;;21.92;44.08;99505.52;104841;1256;60836;-69
2023/03/23 08:34:04;;;;;;;10.40;9.30;;;;;;;22.09;43.50;99503.75;104478;1257;60861;-70
2023/03/23 08:37:07;;;;;;;11.30;10.00;;;;;;;22.26;43.16;99505.92;104291;1270;72178;-69
2023/03/23 08:40:09;;;;;;;10.90;9.60;;;;;;;22.43;43.03;99498.67;104100;1263;68906;-64
2023/03/23 08:43:04;;;;;;;12.80;10.10;;;;;;;22.56;42.74;99499.20;104572;1261;73567;-67
2023/03/23 08:46:10;;;;;;;11.00;9.90;;;;;;;22.75;43.33;99501.10;104340;1261;60888;-67
2023/03/23 08:48:54;;;;;;;11.30;10.10;;;;;;;22.84;42.57;99494.88;104630;1260;61710;-67
2023/03/23 08:51:56;;;;;;;10.60;9.50;;;;;;;22.95;42.23;99494.21;104381;1272;72154;-70
2023/03/23 08:54:32;;;;;;;12.00;10.30;;;;;;;23.01;42.27;99493.63;104599;1269;70583;-69
2023/03/23 08:57:18;;;;;;;10.30;9.30;;;;;;;23.00;40.02;99493.42;104469;1266;73066;-68
2023/03/23 09:00:17;;;;;;;9.60;8.60;;;;;;;23.01;40.71;99491.88;105094;1260;60879;-68
2023/03/23 09:03:06;;;;;;;12.10;10.40;;;;;;;22.99;39.96;99489.67;104812;1273;61234;-70
2023/03/23 09:05:49;;;;;;;14.30;10.30;;;;;;;23.03;40.51;99484.16;104898;1267;74016;-70
2023/03/23 09:08:17;;;;;;;10.80;9.70;;;;;;;23.10;40.92;99480.80;104891;1258;69259;-72
2023/03/23 09:10:45;;;;;;;;;;;;;;;23.21;41.05;99476.33;105051;1256;72171;-66
2023/03/23 09:13:13;;;;;;;11.30;8.70;;;;;;;23.35;40.76;99471.56;104574;1266;60893;-67
2023/03/23 09:15:47;;;;;;;10.40;8.90;;;;;;;23.33;39.88;99473.85;104516;1260;60884;-63
2023/03/23 09:18:14;;;;;;;9.70;8.70;;;;;;;23.37;39.82;99469.91;104655;1257;72422;-64
2023/03/23 09:20:43;;;;;;;11.10;9.80;;;;;;;23.45;40.44;99472.35;104566;1258;70518;-66
2023/03/23 09:23:13;;;;;;;11.00;9.90;;;;;;;23.45;39.40;99472.33;104882;1260;73272;-65
2023/03/23 09:25:40;;;;;;;10.80;9.80;;;;;;;23.35;39.17;99470.28;105063;1268;60972;-66
2023/03/23 09:28:07;;;;;;;10.90;9.10;;;;;;;23.40;39.58;99470.02;104622;1269;60898;-67
2023/03/23 09:30:37;;;;;;;12.60;9.60;;;;;;;23.46;39.86;99467.22;104872;1256;72854;-65
2023/03/23 09:33:05;;;;;;;9.80;8.80;;;;;;;23.53;39.33;99467.30;104530;1267;69521;-65
2023/03/23 09:35:34;;;;;;;12.00;9.80;;;;;;;23.65;39.54;99465.67;104600;1257;71943;-66
2023/03/23 09:38:05;;;;;;;12.00;8.60;;;;;;;23.74;39.02;99464.68;104522;1267;61717;-66
2023/03/23 09:40:48;;;;;;;9.50;8.50;;;;;;;23.77;38.85;99461.14;104428;1272;63412;-66
2023/03/23 09:43:54;;;;;;;9.10;8.10;;;;;;;23.82;38.43;99456.69;104681;1266;73582;-65
2023/03/23 09:46:43;;;;;;;9.80;8.40;;;;;;;23.81;38.20;99456.27;104481;1266;70026;-67
2023/03/23 09:49:17;;;;;;;8.50;7.70;;;;;;;23.74;37.53;99449.28;104603;1270;73674;-65
2023/03/23 09:51:47;;;;;;;9.30;8.40;;;;;;;23.76;38.26;99447.45;104503;1257;62183;-66
2023/03/23 09:54:22;;;;;;;8.80;7.90;;;;;;;23.75;38.16;99443.30;104514;1256;61621;-67
2023/03/23 09:56:51;;;;;;;8.30;7.50;;;;;;;23.81;38.19;99443.80;104622;1267;74641;-67
2023/03/23 09:59:22;;;;;;;7.80;7.10;;;;;;;23.84;38.41;99441.74;104577;1264;70038;-67
2023/03/23 10:01:52;;;;;;;7.00;6.40;;;;;;;23.90;37.50;99437.96;104859;1257;72641;-66
2023/03/23 10:04:37;;;;;;;9.30;7.20;;;;;;;23.96;37.55;99437.23;104513;1257;61658;-68
2023/03/23 10:07:12;;;;;;;7.20;6.10;;;;;;;24.02;37.39;99431.18;104756;1260;61701;-67
2023/03/23 10:09:41;;;;;;;8.10;7.20;;;;;;;23.98;36.84;99431.61;104625;1258;74755;-66
2023/03/23 10:12:29;;;;;;;7.70;6.90;;;;;;;24.12;37.99;99429.72;104507;1259;70750;-66
2023/03/23 10:15:17;;;;;;;7.80;6.90;;;;;;;24.18;36.48;99426.92;104500;1270;71881;-67
2023/03/23 10:17:49;;;;;;;7.30;6.50;;;;;;;24.24;36.82;99425.91;104576;1267;61647;-68
2023/03/23 10:20:37;;;;;;;7.10;6.50;;;;;;;24.30;36.40;99424.48;104475;1258;62208;-68
2023/03/23 10:23:32;;;;;;;8.10;6.90;;;;;;;24.26;36.51;99419.23;104672;1256;73758;-67
2023/03/23 10:26:02;;;;;;;6.90;6.20;;;;;;;24.31;36.10;99417.19;104610;1257;68863;-66
2023/03/23 10:28:44;;;;;;;8.70;7.10;;;;;;;24.36;36.39;99415.59;104530;1258;72667;-67
2023/03/23 10:31:24;;;;;;;7.30;6.60;;;;;;;24.45;36.06;99409.59;104699;1260;61572;-68
2023/03/23 10:33:53;;;;;;;6.90;6.20;;;;;;;24.44;35.42;99407.40;104614;1257;61791;-65
2023/03/23 10:36:37;;;;;;;7.80;7.00;;;;;;;24.44;35.67;99405.20;104527;1264;74132;-63
2023/03/23 10:39:19;;;;;;;7.20;6.40;;;;;;;24.48;35.44;99401.94;104636;1261;69477;-70
2023/03/23 10:41:47;;;;;;;7.80;7.10;;;;;;;24.37;33.96;99401.44;104539;1257;72130;-64
2023/03/23 10:44:25;;;;;;;6.90;6.30;;;;;;;24.43;34.79;99390.61;104764;1256;61611;-64
2023/03/23 10:47:02;;;;;;;7.60;6.50;;;;;;;24.48;34.20;99384.09;104527;1254;61590;-64
2023/03/23 10:49:35;;;;;;;7.20;6.40;;;;;;;24.57;35.14;99381.15;104585;1261;73171;-63
2023/03/23 10:52:37;;;;;;;7.70;7.00;;;;;;;24.60;34.85;99378.28;104522;1256;67887;-65
2023/03/23 10:55:13;;;;;;;7.10;6.30;;;;;;;24.72;34.67;99377.98;104502;1257;72653;-67
2023/03/23 10:57:46;;;;;;;6.90;6.20;;;;;;;24.79;34.30;99374.89;104553;1257;61624;-69
2023/03/23 11:00:26;;;;;;;7.40;6.60;;;;;;;24.86;34.18;99374.80;104820;1268;61079;-69
2023/03/23 11:03:02;;;;;;;6.80;6.30;;;;;;;24.93;34.42;99368.16;104665;1270;72850;-68
2023/03/23 11:05:45;;;;;;;8.70;6.20;;;;;;;24.97;34.60;99369.88;104496;1262;69786;-68
2023/03/23 11:08:19;;;;;;;6.70;6.10;;;;;;;24.89;34.16;99364.83;104873;1267;71614;-69
2023/03/23 11:10:52;;;;;;;6.80;5.80;;;;;;;24.80;33.05;99364.87;104471;1256;61625;-66
2023/03/23 11:13:21;;;;;;;6.80;6.20;;;;;;;24.68;32.85;99362.79;104633;1260;61729;-68
2023/03/23 11:15:50;;;;;;;6.60;6.00;;;;;;;24.62;33.23;99362.67;105051;1254;73729;-68
2023/03/23 11:18:20;;;;;;;7.60;6.40;;;;;;;24.60;32.87;99360.61;104504;1260;69152;-68
2023/03/23 11:20:56;;;;;;;7.50;6.10;;;;;;;24.71;33.53;99357.92;104604;1257;72439;-66
2023/03/23 11:23:36;;;;;;;7.60;6.90;;;;;;;24.85;33.26;99355.41;104656;1260;61726;-68
2023/03/23 11:26:16;;;;;;;7.20;6.50;;;;;;;25.02;32.69;99351.23;104456;1259;61599;-71
2023/03/23 11:28:53;;;;;;;7.30;6.20;;;;;;;25.13;32.62;99341.96;104749;1256;73978;-70
2023/03/23 11:31:22;;;;;;;8.20;7.20;;;;;;;25.24;32.63;99340.25;104643;1263;70869;-68
2023/03/23 11:34:03;;;;;;;6.50;5.40;;;;;;;25.20;32.05;99338.16;104638;1270;72591;-68
2023/03/23 11:36:35;;;;;;;7.00;6.30;;;;;;;25.09;31.20;99339.17;104411;1257;61713;-68
2023/03/23 11:39:05;;;;;;;7.80;5.80;;;;;;;24.98;31.86;99331.73;104490;1256;61705;-67
2023/03/23 11:41:34;;;;;;;6.40;5.80;;;;;;;25.03;32.84;99337.59;105051;1257;73868;-68
2023/03/23 11:44:11;;;;;;;6.10;5.50;;;;;;;25.03;31.76;99332.84;104528;1259;69987;-67
2023/03/23 11:47:01;;;;;;;5.90;5.40;;;;;;;25.05;31.17;99328.55;104537;1258;73404;-67
2023/03/23 11:49:47;;;;;;;6.50;5.90;;;;;;;25.03;31.89;99331.97;104563;1261;63393;-67
2023/03/23 11:52:21;;;;;;;6.90;5.70;;;;;;;25.14;31.17;99322.70;104627;1275;61576;-70
2023/03/23 11:55:14;;;;;;;6.70;6.00;;;;;;;25.25;31.35;99319.70;104385;1257;73574;-66